createdAt,value
2022-08-03T00:00:16.737Z,3.30
2022-08-03T00:05:29.056Z,5.13
2022-08-03T00:10:37.969Z,2.90
2022-08-03T00:15:48.555Z,3.65
2022-08-03T00:21:00.168Z,2.90
2022-08-03T00:26:10.226Z,2.22
2022-08-03T00:31:33.930Z,2.70
2022-08-03T00:36:52.380Z,1.27
2022-08-03T00:42:02.747Z,2.22
2022-08-03T00:47:12.825Z,1.35
2022-08-03T00:52:24.883Z,1.65
2022-08-03T00:57:35.068Z,1.73
2022-08-03T01:02:43.754Z,1.50
2022-08-03T01:08:11.644Z,1.88
2022-08-03T01:14:03.782Z,3.25
2022-08-03T01:19:10.824Z,1.10
2022-08-03T01:24:37.335Z,2.55
2022-08-03T01:30:12.325Z,2.05
2022-08-03T01:35:33.034Z,1.97
2022-08-03T01:40:51.487Z,4.50
2022-08-03T01:46:07.763Z,1.95
2022-08-03T01:52:03.447Z,0.75
2022-08-03T01:57:00.534Z,0.70
2022-08-03T02:02:32.856Z,2.25
2022-08-03T02:07:48.271Z,1.15
2022-08-03T02:13:02.202Z,0.65
2022-08-03T02:18:18.990Z,0.63
2022-08-03T02:23:31.784Z,0.63
2022-08-03T02:28:46.462Z,1.17
2022-08-03T02:34:04.145Z,0.43
2022-08-03T02:39:15.900Z,2.58
2022-08-03T02:44:26.356Z,0.50
2022-08-03T02:49:50.264Z,4.97
2022-08-03T02:55:03.065Z,1.58
2022-08-03T03:05:54.712Z,1.50
2022-08-03T03:10:55.683Z,2.53
2022-08-03T03:16:06.510Z,1.05
2022-08-03T03:21:20.993Z,1.13
2022-08-03T03:26:29.413Z,0.57
2022-08-03T03:31:38.090Z,1.75
2022-08-03T03:36:52.934Z,2.60
2022-08-03T03:42:01.698Z,3.95
2022-08-03T03:47:12.156Z,2.22
2022-08-03T03:52:25.105Z,2.03
2022-08-03T03:57:38.348Z,3.85
2022-08-03T04:02:52.510Z,1.85
2022-08-03T04:08:22.681Z,1.98
2022-08-03T04:13:40.040Z,5.93
2022-08-03T04:18:57.417Z,4.15
2022-08-03T04:24:16.854Z,6.10
2022-08-03T04:29:30.660Z,6.88
2022-08-03T04:34:44.633Z,2.88
2022-08-03T04:40:03.459Z,0.80
2022-08-03T04:45:20.974Z,4.25
2022-08-03T04:50:35.127Z,0.60
2022-08-03T04:55:52.016Z,2.25
2022-08-03T05:01:04.856Z,6.05
2022-08-03T05:06:18.790Z,2.83
2022-08-03T05:11:37.466Z,2.65
2022-08-03T05:16:52.359Z,2.35
2022-08-03T05:22:06.225Z,2.90
2022-08-03T05:27:25.015Z,4.00
2022-08-03T05:32:38.350Z,2.83
2022-08-03T05:37:54.752Z,3.05
2022-08-03T05:43:11.605Z,3.58
2022-08-03T05:48:34.394Z,2.45
2022-08-03T05:53:47.632Z,0.80
2022-08-03T06:04:26.300Z,4.22
2022-08-03T06:10:34.936Z,5.40
2022-08-03T06:15:11.197Z,1.70
2022-08-03T06:20:22.619Z,15.50
2022-08-03T06:25:36.591Z,2.33
2022-08-03T06:30:52.303Z,3.30
2022-08-03T06:36:02.897Z,2.20
2022-08-03T06:41:14.881Z,3.88
2022-08-03T06:46:27.697Z,0.85
2022-08-03T06:52:05.527Z,0.80
2022-08-03T06:57:07.369Z,3.67
2022-08-03T07:02:21.205Z,1.17
2022-08-03T07:07:30.083Z,4.47
2022-08-03T07:12:38.966Z,0.60
2022-08-03T07:18:08.316Z,1.98
2022-08-03T07:23:19.196Z,2.97
2022-08-03T07:28:27.171Z,2.53
2022-08-03T07:33:38.036Z,0.65
2022-08-03T07:38:45.472Z,0.65
2022-08-03T07:43:53.850Z,2.50
2022-08-03T07:49:06.354Z,1.13
2022-08-03T07:54:16.134Z,1.02
2022-08-03T07:59:24.107Z,0.73
2022-08-03T08:04:37.266Z,1.48
2022-08-03T08:09:45.959Z,1.23
2022-08-03T08:14:55.206Z,4.28
2022-08-03T08:20:07.422Z,4.38
2022-08-03T08:25:19.483Z,2.22
2022-08-03T08:30:29.275Z,0.80
2022-08-03T08:35:43.977Z,27.85
2022-08-03T08:40:55.339Z,5.93
2022-08-03T08:46:06.849Z,1.65
2022-08-03T08:51:18.617Z,0.77
2022-08-03T08:56:31.605Z,3.15
2022-08-03T09:01:40.322Z,3.33
2022-08-03T09:07:17.625Z,1.10
2022-08-03T09:12:40.852Z,3.22
2022-08-03T09:17:51.515Z,0.68
2022-08-03T09:23:19.137Z,1.83
2022-08-03T09:29:00.037Z,0.90
2022-08-03T09:34:13.370Z,1.15
2022-08-03T09:39:41.770Z,1.38
2022-08-03T09:44:55.745Z,1.20
2022-08-03T09:50:10.701Z,1.85
2022-08-03T09:56:35.490Z,0.60
2022-08-03T10:01:01.725Z,5.88
2022-08-03T10:06:21.760Z,0.63
2022-08-03T10:11:42.043Z,3.25
2022-08-03T10:16:53.397Z,3.60
2022-08-03T10:22:06.175Z,3.13
2022-08-03T10:27:20.946Z,18.85
2022-08-03T10:32:38.300Z,0.73
2022-08-03T10:37:56.564Z,1.42
2022-08-03T10:43:13.311Z,3.95
2022-08-03T10:48:24.185Z,4.05
2022-08-03T10:53:54.322Z,6.30
2022-08-03T10:59:08.828Z,2.75
2022-08-03T11:04:27.550Z,3.13
2022-08-03T11:09:49.662Z,6.13
2022-08-03T11:20:18.886Z,7.82
2022-08-03T11:25:53.842Z,4.68
2022-08-03T11:31:49.922Z,1.98
2022-08-03T11:37:33.344Z,0.80
2022-08-03T11:42:54.144Z,5.40
2022-08-03T11:53:44.224Z,3.63
2022-08-03T11:59:20.255Z,5.40
2022-08-03T12:04:35.942Z,5.72
2022-08-03T12:09:49.541Z,3.20
2022-08-03T12:15:03.098Z,2.83
2022-08-03T12:20:31.329Z,5.18
2022-08-03T12:25:50.053Z,9.23
2022-08-03T12:31:04.078Z,14.10
2022-08-03T12:36:19.881Z,8.80
2022-08-03T12:41:41.380Z,4.65
2022-08-03T12:46:55.115Z,4.75
2022-08-03T12:52:11.949Z,3.22
2022-08-03T12:57:25.470Z,3.50
2022-08-03T13:02:40.887Z,0.95
2022-08-03T13:08:03.478Z,7.32
2022-08-03T13:13:17.552Z,5.22
2022-08-03T13:18:30.894Z,0.70
2022-08-03T13:23:47.981Z,6.70
2022-08-03T13:29:01.908Z,3.08
2022-08-03T13:34:20.914Z,4.68
2022-08-03T13:40:00.670Z,6.85
2022-08-03T13:45:17.787Z,0.70
2022-08-03T13:50:34.379Z,1.98
2022-08-03T13:55:52.446Z,5.78
2022-08-03T14:01:06.585Z,5.70
2022-08-03T14:06:20.958Z,8.27
2022-08-03T14:12:04.115Z,5.93
2022-08-03T14:17:13.663Z,3.92
2022-08-03T14:22:30.830Z,6.20
2022-08-03T14:27:48.335Z,2.47
2022-08-03T14:33:02.504Z,10.63
2022-08-03T14:38:16.069Z,8.23
2022-08-03T14:43:33.728Z,10.80
2022-08-03T14:50:30.253Z,7.25
2022-08-03T14:54:24.173Z,14.63
2022-08-03T14:59:55.952Z,16.63
2022-08-03T15:05:11.776Z,12.35
2022-08-03T15:10:30.634Z,12.65
2022-08-03T15:21:16.605Z,10.48
2022-08-03T15:26:50.774Z,10.82
2022-08-03T15:32:09.639Z,8.75
2022-08-03T15:37:24.559Z,22.35
2022-08-03T15:42:40.712Z,13.98
2022-08-03T15:47:57.261Z,11.35
2022-08-03T15:53:11.484Z,15.52
2022-08-03T15:59:10.142Z,7.57
2022-08-03T16:04:03.067Z,5.40
2022-08-03T16:09:23.494Z,13.32
2022-08-03T16:14:53.635Z,24.48
2022-08-03T16:20:31.190Z,59.10
2022-08-03T16:25:44.137Z,44.33
2022-08-03T16:31:02.768Z,45.28
2022-08-03T16:36:21.094Z,33.13
2022-08-03T16:41:53.635Z,39.88
2022-08-03T16:47:09.288Z,30.83
2022-08-03T16:52:39.183Z,31.55
2022-08-03T16:57:59.041Z,44.50
2022-08-03T17:44:15.294Z,33.88
2022-08-03T17:49:28.713Z,57.88
2022-08-03T17:55:57.651Z,77.13
2022-08-03T18:00:43.621Z,45.75
2022-08-03T18:06:12.540Z,36.60
2022-08-03T18:11:35.315Z,49.40
2022-08-03T18:16:57.482Z,40.67
2022-08-03T18:22:14.667Z,33.78
2022-08-03T18:27:42.526Z,40.53
2022-08-03T18:34:18.665Z,34.05
2022-08-03T18:38:35.122Z,47.03
2022-08-03T18:44:06.951Z,40.95
2022-08-03T18:54:57.239Z,36.30
2022-08-03T19:00:24.331Z,48.13
2022-08-03T19:06:06.011Z,39.27
2022-08-03T19:12:10.994Z,34.95
2022-08-03T19:17:08.563Z,39.13
2022-08-03T19:22:30.472Z,32.38
2022-08-03T19:27:44.780Z,33.97
2022-08-03T19:33:00.172Z,24.00
2022-08-03T19:38:28.271Z,44.58
2022-08-03T19:49:24.408Z,10.70
2022-08-03T19:54:58.577Z,14.43
2022-08-03T20:00:16.193Z,9.90
2022-08-03T20:05:30.426Z,15.55
2022-08-03T20:11:04.257Z,13.23
2022-08-03T20:16:19.392Z,10.73
2022-08-03T20:21:30.895Z,14.02
2022-08-03T20:26:43.775Z,14.13
2022-08-03T20:31:55.756Z,11.18
2022-08-03T20:37:07.099Z,11.95
2022-08-03T20:42:23.091Z,19.67
2022-08-03T20:47:35.677Z,12.55
2022-08-03T20:52:49.400Z,24.42
2022-08-03T20:58:03.935Z,20.17
2022-08-03T21:03:13.830Z,17.00
2022-08-03T21:08:27.289Z,13.68
2022-08-03T21:13:09.823Z,16.35
2022-08-03T21:13:50.056Z,13.90
2022-08-03T21:18:59.626Z,12.38
2022-08-03T21:24:09.395Z,13.32
2022-08-03T21:29:22.187Z,9.30
2022-08-03T21:34:32.783Z,10.43
2022-08-03T21:39:50.771Z,10.80
2022-08-03T21:45:03.365Z,11.57
2022-08-03T21:50:14.665Z,6.38
2022-08-03T21:55:23.877Z,8.75
2022-08-03T22:00:36.115Z,7.90
2022-08-03T22:05:45.195Z,5.60
2022-08-03T22:10:54.309Z,7.35
2022-08-03T22:16:08.440Z,6.07
2022-08-03T22:21:27.884Z,5.80
2022-08-03T22:27:07.446Z,6.45
2022-08-03T22:32:23.240Z,7.30
2022-08-03T22:37:38.745Z,5.38
2022-08-03T22:42:55.605Z,8.23
2022-08-03T22:48:07.959Z,9.95
2022-08-03T22:53:22.365Z,8.93
2022-08-03T22:58:34.544Z,5.60
2022-08-03T23:04:02.061Z,11.55
2022-08-03T23:09:18.878Z,18.00
2022-08-03T23:14:33.703Z,9.25
2022-08-03T23:19:52.502Z,13.55
2022-08-03T23:25:08.342Z,5.63
2022-08-03T23:30:22.987Z,8.80
2022-08-03T23:36:29.898Z,8.68
2022-08-03T23:41:31.993Z,4.35
2022-08-03T23:46:47.224Z,2.13
2022-08-03T23:52:09.892Z,1.35
2022-08-03T23:57:28.456Z,3.33
